sensor_id;sensor_type;location;lat;lon;timestamp;pressure;altitude;pressure_sealevel;temperature;humidity
53116;BME280;39010;48.088;7.954;2022-09-09T00:03:52;98341.41;;;15.01;88.08
53116;BME280;39010;48.088;7.954;2022-09-09T00:06:21;98342.66;;;14.99;88.68
53116;BME280;39010;48.088;7.954;2022-09-09T00:11:58;98331.47;;;14.95;89.76
53116;BME280;39010;48.088;7.954;2022-09-09T00:14:42;98332.28;;;14.96;89.83
53116;BME280;39010;48.088;7.954;2022-09-09T00:17:22;98334.16;;;14.95;89.65
53116;BME280;39010;48.088;7.954;2022-09-09T00:22:32;98321.28;;;14.91;90.20
53116;BME280;39010;48.088;7.954;2022-09-09T00:25:10;98325.88;;;14.90;90.67
53116;BME280;39010;48.088;7.954;2022-09-09T00:27:45;98329.41;;;14.91;90.19
53116;BME280;39010;48.088;7.954;2022-09-09T00:30:20;98336.00;;;15.01;89.99
53116;BME280;39010;48.088;7.954;2022-09-09T00:32:58;98337.03;;;15.00;89.68
53116;BME280;39010;48.088;7.954;2022-09-09T00:35:32;98336.88;;;14.95;90.55
53116;BME280;39010;48.088;7.954;2022-09-09T00:38:09;98340.19;;;14.97;89.91
53116;BME280;39010;48.088;7.954;2022-09-09T00:41:00;98345.59;;;14.97;90.61
53116;BME280;39010;48.088;7.954;2022-09-09T00:43:30;98350.75;;;14.99;90.28
53116;BME280;39010;48.088;7.954;2022-09-09T00:48:50;98345.72;;;15.02;89.96
53116;BME280;39010;48.088;7.954;2022-09-09T00:51:51;98349.91;;;15.05;90.63
53116;BME280;39010;48.088;7.954;2022-09-09T01:00:14;98357.63;;;15.01;91.24
53116;BME280;39010;48.088;7.954;2022-09-09T01:03:05;98364.63;;;15.09;91.47
53116;BME280;39010;48.088;7.954;2022-09-09T01:08:01;98366.38;;;14.97;92.80
53116;BME280;39010;48.088;7.954;2022-09-09T01:10:38;98366.81;;;14.94;92.84
53116;BME280;39010;48.088;7.954;2022-09-09T01:13:13;98355.78;;;14.95;92.52
53116;BME280;39010;48.088;7.954;2022-09-09T01:15:42;98364.06;;;15.00;93.21
53116;BME280;39010;48.088;7.954;2022-09-09T01:18:13;98363.41;;;15.05;92.78
53116;BME280;39010;48.088;7.954;2022-09-09T01:21:09;98358.19;;;15.03;94.30
53116;BME280;39010;48.088;7.954;2022-09-09T01:24:01;98364.66;;;15.02;93.75
53116;BME280;39010;48.088;7.954;2022-09-09T01:26:45;98355.50;;;15.03;93.07
53116;BME280;39010;48.088;7.954;2022-09-09T01:29:21;98357.34;;;15.10;92.76
53116;BME280;39010;48.088;7.954;2022-09-09T01:31:58;98352.00;;;15.03;94.06
53116;BME280;39010;48.088;7.954;2022-09-09T01:34:28;98350.63;;;15.19;94.70
53116;BME280;39010;48.088;7.954;2022-09-09T01:37:12;98355.25;;;15.12;94.62
53116;BME280;39010;48.088;7.954;2022-09-09T01:39:42;98350.88;;;15.11;93.89
53116;BME280;39010;48.088;7.954;2022-09-09T01:42:15;98361.31;;;15.07;93.07
53116;BME280;39010;48.088;7.954;2022-09-09T01:44:42;98361.94;;;15.09;92.82
53116;BME280;39010;48.088;7.954;2022-09-09T01:47:09;98367.97;;;15.05;93.74
53116;BME280;39010;48.088;7.954;2022-09-09T01:49:51;98371.13;;;15.01;94.59
53116;BME280;39010;48.088;7.954;2022-09-09T01:52:22;98374.41;;;15.03;94.12
53116;BME280;39010;48.088;7.954;2022-09-09T01:54:49;98366.00;;;14.93;95.84
53116;BME280;39010;48.088;7.954;2022-09-09T01:57:25;98363.13;;;14.81;96.98
53116;BME280;39010;48.088;7.954;2022-09-09T02:00:07;98366.00;;;14.93;97.67
53116;BME280;39010;48.088;7.954;2022-09-09T02:03:08;98377.75;;;15.06;99.08
53116;BME280;39010;48.088;7.954;2022-09-09T02:05:56;98374.66;;;15.02;100.00
53116;BME280;39010;48.088;7.954;2022-09-09T02:08:46;98375.22;;;14.79;100.00
53116;BME280;39010;48.088;7.954;2022-09-09T02:11:16;98370.22;;;14.69;100.00
53116;BME280;39010;48.088;7.954;2022-09-09T02:14:00;98372.34;;;14.73;100.00
53116;BME280;39010;48.088;7.954;2022-09-09T02:16:54;98373.16;;;14.67;100.00
53116;BME280;39010;48.088;7.954;2022-09-09T02:19:37;98372.34;;;14.73;100.00
53116;BME280;39010;48.088;7.954;2022-09-09T02:22:13;98360.66;;;14.80;100.00
53116;BME280;39010;48.088;7.954;2022-09-09T02:24:42;98364.41;;;14.79;100.00
53116;BME280;39010;48.088;7.954;2022-09-09T02:27:15;98354.81;;;14.83;100.00
53116;BME280;39010;48.088;7.954;2022-09-09T02:29:43;98359.81;;;14.79;100.00
53116;BME280;39010;48.088;7.954;2022-09-09T02:32:13;98370.84;;;14.78;100.00
53116;BME280;39010;48.088;7.954;2022-09-09T02:34:47;98365.28;;;14.72;100.00
53116;BME280;39010;48.088;7.954;2022-09-09T02:37:18;98361.31;;;14.68;100.00
53116;BME280;39010;48.088;7.954;2022-09-09T02:39:50;98370.25;;;14.76;100.00
53116;BME280;39010;48.088;7.954;2022-09-09T02:42:19;98350.47;;;14.82;100.00
53116;BME280;39010;48.088;7.954;2022-09-09T02:44:45;98354.59;;;14.84;100.00
53116;BME280;39010;48.088;7.954;2022-09-09T02:50:25;98360.16;;;14.96;100.00
53116;BME280;39010;48.088;7.954;2022-09-09T02:56:00;98346.03;;;14.94;100.00
53116;BME280;39010;48.088;7.954;2022-09-09T02:58:33;98351.81;;;14.98;100.00
53116;BME280;39010;48.088;7.954;2022-09-09T03:01:03;98344.56;;;14.92;100.00
53116;BME280;39010;48.088;7.954;2022-09-09T03:03:30;98347.53;;;14.83;100.00
53116;BME280;39010;48.088;7.954;2022-09-09T03:05:59;98341.50;;;14.81;100.00
53116;BME280;39010;48.088;7.954;2022-09-09T03:08:27;98353.34;;;14.87;100.00
53116;BME280;39010;48.088;7.954;2022-09-09T03:10:55;98351.88;;;14.91;100.00
53116;BME280;39010;48.088;7.954;2022-09-09T03:13:25;98353.91;;;14.96;100.00
53116;BME280;39010;48.088;7.954;2022-09-09T03:15:51;98351.44;;;14.94;100.00
53116;BME280;39010;48.088;7.954;2022-09-09T03:18:19;98351.19;;;14.96;100.00
53116;BME280;39010;48.088;7.954;2022-09-09T03:20:49;98348.25;;;15.04;100.00
53116;BME280;39010;48.088;7.954;2022-09-09T03:23:17;98351.81;;;14.98;100.00
53116;BME280;39010;48.088;7.954;2022-09-09T03:25:50;98345.59;;;14.97;100.00
53116;BME280;39010;48.088;7.954;2022-09-09T03:28:24;98343.50;;;14.99;100.00
53116;BME280;39010;48.088;7.954;2022-09-09T03:31:03;98341.97;;;15.03;100.00
53116;BME280;39010;48.088;7.954;2022-09-09T03:33:34;98342.16;;;15.09;100.00
53116;BME280;39010;48.088;7.954;2022-09-09T03:36:05;98345.09;;;15.07;100.00
53116;BME280;39010;48.088;7.954;2022-09-09T03:38:31;98348.00;;;15.06;100.00
53116;BME280;39010;48.088;7.954;2022-09-09T03:40:59;98348.19;;;15.11;100.00
53116;BME280;39010;48.088;7.954;2022-09-09T03:43:27;98349.72;;;15.00;100.00
53116;BME280;39010;48.088;7.954;2022-09-09T03:45:54;98339.50;;;15.02;100.00
53116;BME280;39010;48.088;7.954;2022-09-09T03:48:25;98340.56;;;15.01;100.00
53116;BME280;39010;48.088;7.954;2022-09-09T03:50:55;98333.50;;;15.00;100.00
53116;BME280;39010;48.088;7.954;2022-09-09T03:53:28;98335.59;;;14.98;100.00
53116;BME280;39010;48.088;7.954;2022-09-09T03:55:57;98329.19;;;14.92;100.00
53116;BME280;39010;48.088;7.954;2022-09-09T03:58:27;98325.72;;;14.85;100.00
53116;BME280;39010;48.088;7.954;2022-09-09T04:01:04;98317.00;;;14.83;100.00
53116;BME280;39010;48.088;7.954;2022-09-09T04:03:31;98329.66;;;14.82;100.00
53116;BME280;39010;48.088;7.954;2022-09-09T04:05:59;98329.47;;;14.77;100.00
53116;BME280;39010;48.088;7.954;2022-09-09T04:08:28;98334.53;;;14.60;100.00
53116;BME280;39010;48.088;7.954;2022-09-09T04:10:57;98330.06;;;14.40;100.00
53116;BME280;39010;48.088;7.954;2022-09-09T04:13:25;98330.44;;;14.51;100.00
53116;BME280;39010;48.088;7.954;2022-09-09T04:15:54;98338.69;;;14.63;100.00
53116;BME280;39010;48.088;7.954;2022-09-09T04:18:22;98330.38;;;14.57;100.00
53116;BME280;39010;48.088;7.954;2022-09-09T04:20:49;98328.72;;;14.63;100.00
53116;BME280;39010;48.088;7.954;2022-09-09T04:23:19;98337.63;;;14.70;100.00
53116;BME280;39010;48.088;7.954;2022-09-09T04:25:54;98329.91;;;14.74;100.00
53116;BME280;39010;48.088;7.954;2022-09-09T04:28:23;98341.16;;;14.71;100.00
53116;BME280;39010;48.088;7.954;2022-09-09T04:30:50;98339.06;;;14.73;100.00
53116;BME280;39010;48.088;7.954;2022-09-09T04:33:18;98338.69;;;14.69;100.00
53116;BME280;39010;48.088;7.954;2022-09-09T04:35:49;98336.78;;;14.70;100.00
53116;BME280;39010;48.088;7.954;2022-09-09T04:38:17;98329.53;;;14.70;100.00
53116;BME280;39010;48.088;7.954;2022-09-09T04:40:47;98336.38;;;14.73;100.00
53116;BME280;39010;48.088;7.954;2022-09-09T04:43:14;98334.09;;;14.70;100.00
53116;BME280;39010;48.088;7.954;2022-09-09T04:45:43;98331.59;;;14.68;100.00
53116;BME280;39010;48.088;7.954;2022-09-09T04:48:10;98328.03;;;14.68;100.00
53116;BME280;39010;48.088;7.954;2022-09-09T04:50:36;98335.47;;;14.86;100.00
53116;BME280;39010;48.088;7.954;2022-09-09T04:53:04;98325.09;;;14.83;100.00
53116;BME280;39010;48.088;7.954;2022-09-09T04:55:32;98319.91;;;14.81;100.00
53116;BME280;39010;48.088;7.954;2022-09-09T04:58:05;98326.53;;;14.85;100.00
53116;BME280;39010;48.088;7.954;2022-09-09T05:00:33;98335.28;;;14.81;100.00
53116;BME280;39010;48.088;7.954;2022-09-09T05:03:05;98332.59;;;14.81;100.00
53116;BME280;39010;48.088;7.954;2022-09-09T05:05:33;98333.81;;;14.85;100.00
53116;BME280;39010;48.088;7.954;2022-09-09T05:08:04;98332.34;;;14.89;100.00
53116;BME280;39010;48.088;7.954;2022-09-09T05:10:32;98348.13;;;14.92;100.00
53116;BME280;39010;48.088;7.954;2022-09-09T05:12:59;98338.97;;;14.93;100.00
53116;BME280;39010;48.088;7.954;2022-09-09T05:15:28;98343.94;;;14.96;100.00
53116;BME280;39010;48.088;7.954;2022-09-09T05:17:58;98345.34;;;14.99;100.00
53116;BME280;39010;48.088;7.954;2022-09-09T05:20:27;98339.16;;;15.49;96.43
53116;BME280;39010;48.088;7.954;2022-09-09T05:22:54;98341.25;;;15.47;97.36
53116;BME280;39010;48.088;7.954;2022-09-09T05:25:22;98343.34;;;15.45;98.45
53116;BME280;39010;48.088;7.954;2022-09-09T05:27:50;98345.03;;;15.65;94.77
53116;BME280;39010;48.088;7.954;2022-09-09T05:30:17;98336.75;;;15.59;97.36
53116;BME280;39010;48.088;7.954;2022-09-09T05:32:45;98347.59;;;15.59;96.27
53116;BME280;39010;48.088;7.954;2022-09-09T05:35:12;98341.66;;;15.95;90.18
53116;BME280;39010;48.088;7.954;2022-09-09T05:37:39;98348.50;;;15.97;91.67
53116;BME280;39010;48.088;7.954;2022-09-09T05:40:06;98340.47;;;16.09;88.95
53116;BME280;39010;48.088;7.954;2022-09-09T05:42:33;98359.72;;;16.19;89.62
53116;BME280;39010;48.088;7.954;2022-09-09T05:44:59;98344.22;;;16.45;85.89
53116;BME280;39010;48.088;7.954;2022-09-09T05:47:26;98351.75;;;16.43;86.31
53116;BME280;39010;48.088;7.954;2022-09-09T05:49:54;98356.16;;;16.56;85.44
53116;BME280;39010;48.088;7.954;2022-09-09T05:52:21;98357.06;;;16.50;86.38
53116;BME280;39010;48.088;7.954;2022-09-09T05:54:49;98349.31;;;16.54;85.80
53116;BME280;39010;48.088;7.954;2022-09-09T05:57:16;98355.63;;;16.66;85.13
53116;BME280;39010;48.088;7.954;2022-09-09T05:59:43;98347.56;;;16.90;81.87
53116;BME280;39010;48.088;7.954;2022-09-09T06:02:09;98351.47;;;16.94;81.79
53116;BME280;39010;48.088;7.954;2022-09-09T06:04:36;98353.13;;;16.95;81.70
53116;BME280;39010;48.088;7.954;2022-09-09T06:07:04;98346.22;;;16.99;81.01
53116;BME280;39010;48.088;7.954;2022-09-09T06:09:31;98355.53;;;17.03;80.76
53116;BME280;39010;48.088;7.954;2022-09-09T06:11:57;98353.41;;;17.05;80.27
53116;BME280;39010;48.088;7.954;2022-09-09T06:14:24;98355.31;;;17.05;81.08
53116;BME280;39010;48.088;7.954;2022-09-09T06:16:55;98353.41;;;17.05;80.75
53116;BME280;39010;48.088;7.954;2022-09-09T06:19:26;98360.03;;;17.10;80.63
53116;BME280;39010;48.088;7.954;2022-09-09T06:21:55;98348.78;;;17.25;79.77
53116;BME280;39010;48.088;7.954;2022-09-09T06:24:22;98338.63;;;17.32;79.62
53116;BME280;39010;48.088;7.954;2022-09-09T06:26:48;98343.94;;;17.38;78.60
53116;BME280;39010;48.088;7.954;2022-09-09T06:29:19;98350.91;;;17.34;78.90
53116;BME280;39010;48.088;7.954;2022-09-09T06:31:46;98349.63;;;17.49;78.59
53116;BME280;39010;48.088;7.954;2022-09-09T06:34:21;98357.31;;;17.64;77.87
53116;BME280;39010;48.088;7.954;2022-09-09T06:36:52;98348.94;;;17.65;77.33
53116;BME280;39010;48.088;7.954;2022-09-09T06:39:18;98347.06;;;17.66;77.23
53116;BME280;39010;48.088;7.954;2022-09-09T06:41:45;98353.53;;;17.53;77.85
53116;BME280;39010;48.088;7.954;2022-09-09T06:44:34;98355.88;;;17.61;77.67
53116;BME280;39010;48.088;7.954;2022-09-09T06:47:02;98362.16;;;18.09;75.45
53116;BME280;39010;48.088;7.954;2022-09-09T06:49:30;98356.59;;;18.16;74.63
53116;BME280;39010;48.088;7.954;2022-09-09T06:51:57;98368.41;;;18.63;72.75
53116;BME280;39010;48.088;7.954;2022-09-09T06:54:24;98357.69;;;18.15;73.80
53116;BME280;39010;48.088;7.954;2022-09-09T06:56:51;98370.41;;;17.91;75.33
53116;BME280;39010;48.088;7.954;2022-09-09T06:59:21;98375.13;;;17.84;76.10
53116;BME280;39010;48.088;7.954;2022-09-09T07:01:50;98373.00;;;17.74;76.55
53116;BME280;39010;48.088;7.954;2022-09-09T07:04:21;98382.91;;;17.68;76.64
53116;BME280;39010;48.088;7.954;2022-09-09T07:06:48;98380.31;;;18.21;74.10
53116;BME280;39010;48.088;7.954;2022-09-09T07:09:20;98396.22;;;18.53;72.90
53116;BME280;39010;48.088;7.954;2022-09-09T07:11:50;98381.25;;;18.38;73.21
53116;BME280;39010;48.088;7.954;2022-09-09T07:14:20;98384.97;;;18.61;72.35
53116;BME280;39010;48.088;7.954;2022-09-09T07:16:54;98391.53;;;18.77;71.50
53116;BME280;39010;48.088;7.954;2022-09-09T07:19:26;98393.16;;;18.49;71.81
53116;BME280;39010;48.088;7.954;2022-09-09T07:21:54;98382.34;;;18.66;72.44
53116;BME280;39010;48.088;7.954;2022-09-09T07:24:22;98400.63;;;18.83;71.05
53116;BME280;39010;48.088;7.954;2022-09-09T07:26:50;98386.09;;;19.18;69.09
53116;BME280;39010;48.088;7.954;2022-09-09T07:29:18;98379.25;;;19.33;68.85
53116;BME280;39010;48.088;7.954;2022-09-09T07:31:47;98382.22;;;19.65;66.89
53116;BME280;39010;48.088;7.954;2022-09-09T07:34:18;98391.47;;;19.64;66.38
53116;BME280;39010;48.088;7.954;2022-09-09T07:36:45;98391.41;;;19.93;64.94
53116;BME280;39010;48.088;7.954;2022-09-09T07:39:13;98385.53;;;19.67;65.99
53116;BME280;39010;48.088;7.954;2022-09-09T07:41:47;98392.06;;;19.03;67.31
53116;BME280;39010;48.088;7.954;2022-09-09T07:44:21;98391.47;;;19.01;67.11
53116;BME280;39010;48.088;7.954;2022-09-09T07:46:53;98393.41;;;19.18;67.00
53116;BME280;39010;48.088;7.954;2022-09-09T07:49:25;98393.94;;;19.32;67.70
53116;BME280;39010;48.088;7.954;2022-09-09T07:51:59;98397.81;;;19.70;65.53
53116;BME280;39010;48.088;7.954;2022-09-09T07:54:26;98408.84;;;19.29;66.95
53116;BME280;39010;48.088;7.954;2022-09-09T07:56:52;98395.03;;;19.02;67.40
53116;BME280;39010;48.088;7.954;2022-09-09T07:59:22;98403.47;;;18.76;68.62
53116;BME280;39010;48.088;7.954;2022-09-09T08:01:52;98416.91;;;18.54;69.28
53116;BME280;39010;48.088;7.954;2022-09-09T08:04:25;98418.25;;;18.28;70.39
53116;BME280;39010;48.088;7.954;2022-09-09T08:06:58;98409.75;;;18.36;70.87
53116;BME280;39010;48.088;7.954;2022-09-09T08:09:27;98416.66;;;18.55;70.63
53116;BME280;39010;48.088;7.954;2022-09-09T08:12:06;98418.72;;;18.36;69.61
53116;BME280;39010;48.088;7.954;2022-09-09T08:14:34;98411.38;;;18.37;70.50
53116;BME280;39010;48.088;7.954;2022-09-09T08:17:01;98414.59;;;18.34;70.47
53116;BME280;39010;48.088;7.954;2022-09-09T08:19:28;98411.88;;;18.75;68.93
53116;BME280;39010;48.088;7.954;2022-09-09T08:22:04;98408.06;;;19.17;67.02
53116;BME280;39010;48.088;7.954;2022-09-09T08:24:32;98412.75;;;19.67;64.37
53116;BME280;39010;48.088;7.954;2022-09-09T08:26:58;98409.84;;;20.25;62.67
53116;BME280;39010;48.088;7.954;2022-09-09T08:29:26;98409.84;;;20.25;62.36
53116;BME280;39010;48.088;7.954;2022-09-09T08:31:56;98412.34;;;20.94;59.01
53116;BME280;39010;48.088;7.954;2022-09-09T08:34:25;98416.28;;;21.03;59.45
53116;BME280;39010;48.088;7.954;2022-09-09T08:36:55;98413.00;;;21.61;57.68
53116;BME280;39010;48.088;7.954;2022-09-09T08:39:28;98405.19;;;20.87;59.77
53116;BME280;39010;48.088;7.954;2022-09-09T08:44:42;98409.88;;;20.92;59.65
53116;BME280;39010;48.088;7.954;2022-09-09T08:47:48;98412.31;;;21.43;56.45
53116;BME280;39010;48.088;7.954;2022-09-09T08:50:35;98413.66;;;21.68;56.81
53116;BME280;39010;48.088;7.954;2022-09-09T08:53:22;98406.88;;;21.76;56.30
53116;BME280;39010;48.088;7.954;2022-09-09T08:56:00;98409.84;;;21.69;55.83
53116;BME280;39010;48.088;7.954;2022-09-09T08:58:50;98403.28;;;21.70;56.41
53116;BME280;39010;48.088;7.954;2022-09-09T09:04:33;98418.00;;;21.42;54.81
53116;BME280;39010;48.088;7.954;2022-09-09T09:07:38;98415.25;;;21.64;56.52
53116;BME280;39010;48.088;7.954;2022-09-09T09:10:26;98409.84;;;21.14;58.06
53116;BME280;39010;48.088;7.954;2022-09-09T09:13:18;98420.59;;;20.99;58.52
53116;BME280;39010;48.088;7.954;2022-09-09T09:15:54;98428.84;;;20.20;60.59
53116;BME280;39010;48.088;7.954;2022-09-09T09:18:23;98430.75;;;19.68;62.15
53116;BME280;39010;48.088;7.954;2022-09-09T09:21:02;98420.66;;;19.69;60.66
53116;BME280;39010;48.088;7.954;2022-09-09T09:24:11;98415.44;;;19.33;62.45
53116;BME280;39010;48.088;7.954;2022-09-09T09:26:34;98417.06;;;19.63;60.59
53116;BME280;39010;48.088;7.954;2022-09-09T09:29:10;98424.16;;;20.38;58.19
53116;BME280;39010;48.088;7.954;2022-09-09T09:31:38;98408.41;;;20.62;57.53
53116;BME280;39010;48.088;7.954;2022-09-09T09:34:08;98417.78;;;21.43;55.11
53116;BME280;39010;48.088;7.954;2022-09-09T09:37:01;98410.13;;;22.16;53.48
53116;BME280;39010;48.088;7.954;2022-09-09T09:39:32;98414.78;;;21.72;53.68
53116;BME280;39010;48.088;7.954;2022-09-09T09:42:24;98400.72;;;21.31;54.33
53116;BME280;39010;48.088;7.954;2022-09-09T09:44:54;98420.53;;;21.48;54.29
53116;BME280;39010;48.088;7.954;2022-09-09T09:47:22;98397.34;;;21.78;54.38
53116;BME280;39010;48.088;7.954;2022-09-09T09:50:19;98415.00;;;22.08;51.69
53116;BME280;39010;48.088;7.954;2022-09-09T09:52:54;98395.22;;;22.34;51.15
53116;BME280;39010;48.088;7.954;2022-09-09T09:55:22;98386.06;;;22.13;51.05
53116;BME280;39010;48.088;7.954;2022-09-09T09:57:50;98390.47;;;22.67;49.36
53116;BME280;39010;48.088;7.954;2022-09-09T10:00:21;98380.09;;;22.69;49.63
53116;BME280;39010;48.088;7.954;2022-09-09T10:02:56;98392.44;;;21.81;50.22
53116;BME280;39010;48.088;7.954;2022-09-09T10:05:30;98381.81;;;21.89;49.26
53116;BME280;39010;48.088;7.954;2022-09-09T10:08:11;98379.81;;;22.71;47.58
53116;BME280;39010;48.088;7.954;2022-09-09T10:13:38;98374.41;;;22.97;47.50
53116;BME280;39010;48.088;7.954;2022-09-09T10:19:16;98374.66;;;22.26;47.18
53116;BME280;39010;48.088;7.954;2022-09-09T10:22:15;98378.50;;;21.49;49.84
53116;BME280;39010;48.088;7.954;2022-09-09T10:24:58;98375.44;;;21.46;49.49
53116;BME280;39010;48.088;7.954;2022-09-09T10:28:40;98370.97;;;21.62;50.68
53116;BME280;39010;48.088;7.954;2022-09-09T10:30:45;98378.75;;;21.15;51.81
53116;BME280;39010;48.088;7.954;2022-09-09T10:33:30;98366.78;;;20.72;53.48
53116;BME280;39010;48.088;7.954;2022-09-09T10:36:02;98376.31;;;20.69;54.07
53116;BME280;39010;48.088;7.954;2022-09-09T10:38:44;98382.03;;;20.23;55.93
53116;BME280;39010;48.088;7.954;2022-09-09T10:44:12;98392.78;;;19.27;63.89
53116;BME280;39010;48.088;7.954;2022-09-09T10:50:06;98396.78;;;18.96;66.26
53116;BME280;39010;48.088;7.954;2022-09-09T10:53:02;98390.63;;;18.72;66.75
53116;BME280;39010;48.088;7.954;2022-09-09T10:55:49;98401.22;;;18.85;64.45
53116;BME280;39010;48.088;7.954;2022-09-09T10:58:24;98413.97;;;18.84;64.02
53116;BME280;39010;48.088;7.954;2022-09-09T11:00:56;98414.16;;;18.95;64.34
53116;BME280;39010;48.088;7.954;2022-09-09T11:03:28;98410.44;;;18.84;63.02
53116;BME280;39010;48.088;7.954;2022-09-09T11:06:04;98413.22;;;19.01;63.15
53116;BME280;39010;48.088;7.954;2022-09-09T11:08:38;98408.06;;;19.17;58.59
53116;BME280;39010;48.088;7.954;2022-09-09T11:11:25;98423.13;;;19.36;59.32
53116;BME280;39010;48.088;7.954;2022-09-09T11:14:03;98409.72;;;19.81;60.39
53116;BME280;39010;48.088;7.954;2022-09-09T11:16:46;98396.41;;;19.84;58.77
53116;BME280;39010;48.088;7.954;2022-09-09T11:21:47;98401.13;;;19.72;57.85
53116;BME280;39010;48.088;7.954;2022-09-09T11:24:43;98419.16;;;19.90;55.76
53116;BME280;39010;48.088;7.954;2022-09-09T11:27:18;98426.69;;;19.71;54.11
53116;BME280;39010;48.088;7.954;2022-09-09T11:36:05;98439.19;;;19.21;54.65
53116;BME280;39010;48.088;7.954;2022-09-09T11:38:44;98426.41;;;19.21;56.17
53116;BME280;39010;48.088;7.954;2022-09-09T11:41:13;98430.97;;;19.33;56.55
53116;BME280;39010;48.088;7.954;2022-09-09T11:43:51;98432.81;;;19.61;57.37
53116;BME280;39010;48.088;7.954;2022-09-09T11:46:20;98433.97;;;19.65;56.54
53116;BME280;39010;48.088;7.954;2022-09-09T11:49:03;98431.25;;;19.82;56.05
53116;BME280;39010;48.088;7.954;2022-09-09T11:51:32;98428.69;;;20.49;54.69
53116;BME280;39010;48.088;7.954;2022-09-09T11:54:31;98422.13;;;21.12;53.87
53116;BME280;39010;48.088;7.954;2022-09-09T11:56:58;98424.50;;;20.81;52.00
53116;BME280;39010;48.088;7.954;2022-09-09T11:59:32;98432.59;;;20.14;54.45
53116;BME280;39010;48.088;7.954;2022-09-09T12:02:00;98405.84;;;20.11;56.21
53116;BME280;39010;48.088;7.954;2022-09-09T12:04:34;98413.84;;;20.00;56.36
53116;BME280;39010;48.088;7.954;2022-09-09T12:07:38;98407.78;;;20.15;56.55
53116;BME280;39010;48.088;7.954;2022-09-09T12:12:38;98417.22;;;19.73;57.94
53116;BME280;39010;48.088;7.954;2022-09-09T12:17:45;98409.88;;;19.74;58.14
53116;BME280;39010;48.088;7.954;2022-09-09T12:20:14;98406.91;;;19.93;57.48
53116;BME280;39010;48.088;7.954;2022-09-09T12:22:51;98404.28;;;19.98;58.04
53116;BME280;39010;48.088;7.954;2022-09-09T12:26:07;98395.09;;;20.21;56.68
53116;BME280;39010;48.088;7.954;2022-09-09T12:28:11;98396.44;;;20.85;55.38
53116;BME280;39010;48.088;7.954;2022-09-09T12:33:20;98406.69;;;21.28;51.96
53116;BME280;39010;48.088;7.954;2022-09-09T12:35:53;98408.31;;;21.56;50.73
53116;BME280;39010;48.088;7.954;2022-09-09T12:38:29;98400.81;;;21.41;50.00
53116;BME280;39010;48.088;7.954;2022-09-09T12:40:58;98396.47;;;21.73;48.94
53116;BME280;39010;48.088;7.954;2022-09-09T12:43:26;98392.88;;;21.67;48.53
53116;BME280;39010;48.088;7.954;2022-09-09T12:46:02;98390.31;;;21.28;49.52
53116;BME280;39010;48.088;7.954;2022-09-09T12:48:38;98383.38;;;21.15;50.21
53116;BME280;39010;48.088;7.954;2022-09-09T12:51:19;98380.28;;;20.79;50.71
53116;BME280;39010;48.088;7.954;2022-09-09T12:53:47;98395.66;;;20.68;51.84
53116;BME280;39010;48.088;7.954;2022-09-09T12:56:45;98383.59;;;20.64;51.97
53116;BME280;39010;48.088;7.954;2022-09-09T12:59:24;98373.63;;;20.97;51.24
53116;BME280;39010;48.088;7.954;2022-09-09T13:01:59;98379.25;;;21.12;51.91
53116;BME280;39010;48.088;7.954;2022-09-09T13:04:25;98396.59;;;20.56;52.42
53116;BME280;39010;48.088;7.954;2022-09-09T13:06:52;98383.69;;;20.24;52.30
53116;BME280;39010;48.088;7.954;2022-09-09T13:09:19;98379.97;;;20.13;51.69
53116;BME280;39010;48.088;7.954;2022-09-09T13:11:49;98395.44;;;20.08;52.17
53116;BME280;39010;48.088;7.954;2022-09-09T13:14:27;98380.91;;;20.02;52.56
53116;BME280;39010;48.088;7.954;2022-09-09T13:16:59;98384.28;;;20.09;52.33
53116;BME280;39010;48.088;7.954;2022-09-09T13:19:35;98382.53;;;20.20;52.33
53116;BME280;39010;48.088;7.954;2022-09-09T13:22:30;98378.41;;;20.62;51.81
53116;BME280;39010;48.088;7.954;2022-09-09T13:28:02;98377.59;;;20.84;51.77
53116;BME280;39010;48.088;7.954;2022-09-09T13:30:32;98378.47;;;20.45;52.74
53116;BME280;39010;48.088;7.954;2022-09-09T13:36:12;98397.56;;;19.88;57.25
53116;BME280;39010;48.088;7.954;2022-09-09T13:38:56;98405.97;;;18.66;65.00
53116;BME280;39010;48.088;7.954;2022-09-09T13:41:29;98414.69;;;17.91;68.81
53116;BME280;39010;48.088;7.954;2022-09-09T13:43:57;98411.78;;;17.38;68.68
53116;BME280;39010;48.088;7.954;2022-09-09T13:46:44;98420.53;;;17.10;71.11
53116;BME280;39010;48.088;7.954;2022-09-09T13:51:43;98410.00;;;17.02;71.35
53116;BME280;39010;48.088;7.954;2022-09-09T13:54:13;98411.97;;;16.94;75.03
53116;BME280;39010;48.088;7.954;2022-09-09T13:56:41;98407.44;;;16.88;77.66
53116;BME280;39010;48.088;7.954;2022-09-09T13:59:16;98410.22;;;17.00;85.77
53116;BME280;39010;48.088;7.954;2022-09-09T14:01:42;98413.22;;;17.11;90.06
53116;BME280;39010;48.088;7.954;2022-09-09T14:04:09;98398.16;;;16.96;84.35
53116;BME280;39010;48.088;7.954;2022-09-09T14:06:37;98393.38;;;16.79;82.44
53116;BME280;39010;48.088;7.954;2022-09-09T14:09:06;98392.38;;;17.11;81.55
53116;BME280;39010;48.088;7.954;2022-09-09T14:11:33;98395.94;;;17.23;84.23
53116;BME280;39010;48.088;7.954;2022-09-09T14:13:59;98399.88;;;17.40;83.83
53116;BME280;39010;48.088;7.954;2022-09-09T14:16:27;98392.47;;;17.59;83.85
53116;BME280;39010;48.088;7.954;2022-09-09T14:18:54;98390.34;;;17.73;86.39
53116;BME280;39010;48.088;7.954;2022-09-09T14:21:23;98399.22;;;17.92;77.90
53116;BME280;39010;48.088;7.954;2022-09-09T14:23:50;98399.31;;;17.61;88.57
53116;BME280;39010;48.088;7.954;2022-09-09T14:26:16;98398.97;;;18.29;82.72
53116;BME280;39010;48.088;7.954;2022-09-09T14:28:45;98390.69;;;18.48;86.49
53116;BME280;39010;48.088;7.954;2022-09-09T14:31:22;98393.09;;;19.48;64.86
53116;BME280;39010;48.088;7.954;2022-09-09T14:33:49;98399.59;;;19.93;67.10
53116;BME280;39010;48.088;7.954;2022-09-09T14:36:18;98398.91;;;20.03;64.60
53116;BME280;39010;48.088;7.954;2022-09-09T14:38:44;98394.81;;;20.45;62.56